Latest Coastal Weather Observations for Hogan Island

IDV60701

Issued at 11:52 am EDT Tuesday 28 February 2017 (issued every 10 minutes, with the page automatically refreshed every 10 minutes)

About coastal observations | Map of coastal stations | Coastal observations for VIC | Marine services | Other Formats
Station Details ID: 200838 Name: HOGAN ISLAND Lat: -39.22 Lon: 146.98 Height: 116.0 m
Data from the previous 72 hours. | See also: Recent months at Hogan Island
Date/Time
EDT
Temp
°C
Wind Pressure Rain since
9am
mm
Weather Cloud Vis
km
Sea
Height
m
Swell
Dir  Spd
kts
Gust
kts
hPa Trend Height
m
Period
s
Dir
28/11:30am 18.8 NE 8 9 1022.6 - 0.2 - - - - - - -
28/11:00am 17.4 NNE 7 9 1022.7 - 0.2 - - - - - - -
28/10:30am 17.4 NE 9 11 1022.5 - 0.2 - - - - - - -
28/10:00am 17.0 NE 11 13 1022.4 - 0.2 - - - - - - -
28/09:30am 17.0 ENE 11 13 1022.3 - 0.2 - - - - - - -
28/09:00am 18.5 ENE 12 13 1021.9 - 0.0 - - - - - - -
28/08:30am 18.1 E 11 13 1022.1 - 0.0 - - - - - - -
28/08:00am 17.8 E 11 13 1022.0 - 0.0 - - - - - - -
28/07:30am 17.2 ENE 12 15 1021.9 - 0.0 - - - - - - -
28/07:00am 16.8 ENE 14 16 1021.7 - 0.0 - - - - - - -
28/06:30am 16.9 E 15 18 1021.5 - 0.0 - - - - - - -
28/06:00am 17.0 E 15 18 1021.1 - 0.0 - - - - - - -
28/05:30am 17.1 E 15 18 1021.3 - 0.0 - - - - - - -
28/05:00am 17.3 E 16 19 1021.3 - 0.0 - - - - - - -
28/04:30am 17.3 E 16 20 1021.4 - 0.0 - - - - - - -
28/04:00am 17.4 E 16 21 1021.7 - 0.0 - - - - - - -
28/03:30am 17.4 E 18 22 1021.9 - 0.0 - - - - - - -
28/03:00am 17.5 E 19 23 1021.9 - 0.0 - - - - - - -
28/02:30am 17.6 E 20 24 1022.4 - 0.0 - - - - - - -
28/02:00am 17.6 E 20 24 1022.6 - 0.0 - - - - - - -
28/01:30am 17.7 E 20 24 1022.9 - 0.0 - - - - - - -
28/01:00am 17.5 ENE 20 24 1023.1 - 0.0 - - - - - - -
28/12:30am 17.5 ENE 22 27 1023.1 - 0.0 - - - - - - -
28/12:00am 17.5 E 22 27 1023.0 - 0.0 - - - - - - -
 
Date/Time
EDT
Temp
°C
Wind Pressure Rain since
9am
mm
Weather Cloud Vis
km
Sea
Height
m
Swell
Dir  Spd
kts
Gust
kts
hPa Trend Height
m
Period
s
Dir
27/11:30pm 17.2 E 20 25 1023.6 - 0.0 - - - - - - -
27/11:00pm 17.2 E 21 25 1023.8 - 0.0 - - - - - - -
27/10:30pm 17.3 E 20 24 1024.1 - 0.0 - - - - - - -
27/10:00pm 17.1 E 21 27 1024.0 - 0.0 - - - - - - -
27/09:30pm 17.3 E 22 28 1024.0 - 0.0 - - - - - - -
27/09:00pm 17.3 E 23 27 1023.5 - 0.0 - - - - - - -
27/08:30pm 17.4 E 23 27 1023.6 - 0.0 - - - - - - -
27/08:00pm 17.5 E 24 28 1023.4 - 0.0 - - - - - - -
27/07:30pm 17.7 E 23 27 1023.2 - 0.0 - - - - - - -
27/07:00pm 17.9 E 23 27 1023.1 - 0.0 - - - - - - -
27/06:30pm 18.3 E 22 27 1023.1 - 0.0 - - - - - - -
27/06:00pm 18.7 E 22 25 1022.9 - 0.0 - - - - - - -
27/05:30pm 19.2 E 21 25 1023.2 - 0.0 - - - - - - -
27/05:00pm 19.5 E 21 25 1023.2 - 0.0 - - - - - - -
27/04:30pm 20.0 E 21 25 1023.4 - 0.0 - - - - - - -
27/04:00pm 20.2 E 22 27 1023.6 - 0.0 - - - - - - -
27/03:30pm 20.8 ENE 23 26 1023.8 - 0.0 - - - - - - -
27/03:00pm 21.5 ENE 21 23 1023.7 - 0.0 - - - - - - -
27/02:30pm 21.2 ENE 20 23 1024.4 - 0.0 - - - - - - -
27/02:00pm 21.2 ENE 21 24 1024.5 - 0.0 - - - - - - -
27/01:30pm 21.5 ENE 18 22 1024.6 - 0.0 - - - - - - -
27/01:00pm 21.4 ENE 19 21 1024.6 - 0.0 - - - - - - -
27/12:30pm 21.2 ENE 21 24 1024.6 - 0.0 - - - - - - -
27/12:00pm 21.5 ENE 23 25 1024.2 - 0.0 - - - - - - -
27/11:30am 20.8 ENE 24 27 1024.5 - 0.0 - - - - - - -
27/11:00am 20.9 ENE 23 27 1024.6 - 0.0 - - - - - - -
27/10:30am 20.5 ENE 22 25 1024.8 - 0.0 - - - - - - -
27/10:00am 19.8 ENE 22 25 1024.7 - 0.0 - - - - - - -
27/09:30am 19.3 ENE 23 26 1024.6 - 0.0 - - - - - - -
27/09:00am 18.9 ENE 23 26 1024.1 - 0.0 - - - - - - -
27/08:30am 18.5 ENE 23 25 1024.4 - 0.0 - - - - - - -
27/08:00am 17.8 ENE 24 28 1023.9 - 0.0 - - - - - - -
27/07:30am 17.4 ENE 25 28 1023.8 - 0.0 - - - - - - -
27/07:00am 17.1 ENE 26 31 1023.3 - 0.0 - - - - - - -
27/06:30am 16.9 ENE 25 31 1023.0 - 0.0 - - - - - - -
27/06:00am 16.9 E 23 27 1022.6 - 0.0 - - - - - - -
27/05:30am 16.8 E 23 28 1022.9 - 0.0 - - - - - - -
27/05:00am 16.7 E 23 27 1022.9 - 0.0 - - - - - - -
27/04:30am 16.6 ENE 25 30 1022.9 - 0.0 - - - - - - -
27/04:00am 16.5 ENE 24 28 1023.1 - 0.0 - - - - - - -
27/03:30am 16.5 ENE 23 28 1023.2 - 0.0 - - - - - - -
27/03:00am 16.2 ENE 22 25 1023.4 - 0.0 - - - - - - -
27/02:30am 16.2 ENE 22 25 1023.7 - 0.0 - - - - - - -
27/02:00am 16.3 ENE 22 26 1023.8 - 0.0 - - - - - - -
27/01:30am 16.2 ENE 21 24 1024.0 - 0.0 - - - - - - -
27/01:00am 16.2 ENE 21 25 1024.3 - 0.0 - - - - - - -
27/12:30am 16.1 ENE 22 26 1024.4 - 0.0 - - - - - - -
27/12:00am 16.2 ENE 23 26 1024.3 - 0.0 - - - - - - -
 
Date/Time
EDT
Temp
°C
Wind Pressure Rain since
9am
mm
Weather Cloud Vis
km
Sea
Height
m
Swell
Dir  Spd
kts
Gust
kts
hPa Trend Height
m
Period
s
Dir
26/11:30pm 16.3 ENE 25 29 1024.6 - 0.0 - - - - - - -
26/11:00pm 16.3 ENE 25 27 1024.8 - 0.0 - - - - - - -
26/10:30pm 16.2 ENE 23 26 1025.0 - 0.0 - - - - - - -
26/10:00pm 16.2 ENE 24 28 1024.9 - 0.0 - - - - - - -
26/09:30pm 16.6 ENE 26 32 1024.7 - 0.0 - - - - - - -
26/09:00pm 16.5 E 24 29 1024.1 - 0.0 - - - - - - -
26/08:30pm 16.5 E 24 30 1024.3 - 0.0 - - - - - - -
26/08:00pm 16.6 E 24 29 1024.1 - 0.0 - - - - - - -
26/07:30pm 16.8 E 26 31 1023.8 - 0.0 - - - - - - -
26/07:00pm 17.2 E 24 30 1023.7 - 0.0 - - - - - - -
26/06:30pm 17.6 E 25 31 1023.8 - 0.0 - - - - - - -
26/06:00pm 18.0 E 24 28 1023.4 - 0.0 - - - - - - -
26/05:30pm 18.8 ENE 20 23 1023.7 - 0.0 - - - - - - -
26/05:00pm 19.5 E 18 21 1023.7 - 0.0 - - - - - - -
26/04:30pm 20.1 ENE 20 24 1023.7 - 0.0 - - - - - - -
26/04:00pm 19.9 ENE 21 25 1023.8 - 0.0 - - - - - - -
26/03:30pm 19.9 ENE 22 25 1024.1 - 0.0 - - - - - - -
26/03:00pm 20.4 ENE 23 27 1024.1 - 0.0 - - - - - - -
26/02:30pm 20.3 ENE 25 28 1024.5 - 0.0 - - - - - - -
26/02:00pm 20.6 ENE 23 26 1024.7 - 0.0 - - - - - - -
26/01:30pm 20.7 ENE 23 27 1024.7 - 0.0 - - - - - - -
26/01:00pm 21.0 ENE 22 25 1024.9 - 0.0 - - - - - - -
26/12:30pm 20.3 ENE 22 25 1025.1 - 0.0 - - - - - - -
26/12:00pm 20.2 ENE 22 25 1024.9 - 0.0 - - - - - - -
26/11:30am 20.0 ENE 23 27 1025.1 - 0.0 - - - - - - -
26/11:00am 19.6 ENE 23 28 1025.3 - 0.0 - - - - - - -
26/10:30am 19.2 E 23 27 1025.5 - 0.0 - - - - - - -
26/10:00am 19.0 E 23 27 1025.5 - 0.0 - - - - - - -
26/09:30am 18.6 E 23 27 1025.4 - 0.0 - - - - - - -
26/09:00am 18.5 E 21 26 1024.6 - 1.6 - - - - - - -
26/08:30am 17.4 E 23 30 1024.5 - 1.6 - - - - - - -
26/08:00am 17.0 E 23 26 1024.5 - 1.6 - - - - - - -
26/07:30am 16.4 E 23 27 1024.4 - 1.6 - - - - - - -
26/07:00am 15.9 E 23 27 1024.2 - 1.6 - - - - - - -
26/06:30am 15.7 E 23 28 1023.7 - 1.6 - - - - - - -
26/06:00am 15.7 E 24 30 1023.1 - 1.6 - - - - - - -
26/05:30am 15.8 E 25 29 1023.6 - 1.6 - - - - - - -
26/05:00am 15.9 E 24 29 1023.5 - 1.6 - - - - - - -
26/04:30am 15.8 E 23 27 1023.1 - 1.6 - - - - - - -
26/04:00am 15.7 E 24 29 1023.1 - 1.6 - - - - - - -
26/03:30am 15.9 E 23 30 1023.4 - 1.6 - - - - - - -
26/03:00am 15.9 E 23 27 1023.5 - 1.6 - - - - - - -
26/02:30am 15.9 E 24 29 1024.1 - 1.6 - - - - - - -
26/02:00am 16.0 E 24 28 1024.5 - 1.6 - - - - - - -
26/01:30am 16.0 E 24 28 1024.7 - 1.6 - - - - - - -
26/01:00am 15.9 E 24 28 1025.0 - 1.6 - - - - - - -
26/12:30am 15.9 E 25 29 1024.9 - 1.6 - - - - - - -
26/12:00am 15.9 E 25 29 1024.7 - 1.6 - - - - - - -
 
Date/Time
EDT
Temp
°C
Wind Pressure Rain since
9am
mm
Weather Cloud Vis
km
Sea
Height
m
Swell
Dir  Spd
kts
Gust
kts
hPa Trend Height
m
Period
s
Dir
25/11:30pm 16.0 E 26 30 1024.8 - 1.6 - - - - - - -
25/11:00pm 16.0 E 26 30 1024.8 - 1.6 - - - - - - -
25/10:30pm 16.2 E 26 31 1024.9 - 1.6 - - - - - - -
25/10:00pm 16.1 E 25 30 1025.0 - 1.6 - - - - - - -
25/09:30pm 16.2 E 27 30 1024.7 - 1.6 - - - - - - -
25/09:00pm 15.9 E 27 31 1024.1 - 1.6 - - - - - - -
25/08:30pm 15.7 E 28 33 1024.2 - 1.6 - - - - - - -
25/08:00pm 15.7 E 28 33 1024.0 - 1.6 - - - - - - -
25/07:30pm 15.8 E 29 33 1024.0 - 1.6 - - - - - - -
25/07:00pm 16.0 E 31 35 1023.7 - 1.6 - - - - - - -
25/06:30pm 16.2 E 29 35 1023.8 - 1.6 - - - - - - -
25/06:00pm 15.8 E 30 35 1023.4 - 1.6 - - - - - - -
25/05:30pm 15.7 E 29 35 1023.6 - 1.6 - - - - - - -
25/05:00pm 16.0 E 31 35 1023.4 - 1.6 - - - - - - -
25/04:30pm 16.7 E 28 32 1023.5 - 1.6 - - - - - - -
25/04:00pm 16.4 E 30 35 1023.4 - 1.6 - - - - - - -
25/03:30pm 16.3 E 32 36 1023.2 - 1.6 - - - - - - -
25/03:00pm 16.3 E 30 35 1023.1 - 1.6 - - - - - - -
25/02:30pm 16.1 E 28 33 1023.7 - 1.6 - - - - - - -
25/02:00pm 14.8 E 29 34 1024.0 - 1.6 - - - - - - -
25/01:30pm 14.7 E 26 33 1024.4 - 1.6 - - - - - - -
25/01:00pm 15.0 E 23 27 1024.7 - 1.4 - - - - - - -
25/12:30pm 14.5 E 23 28 1024.8 - 1.4 - - - - - - -
25/12:00pm 14.5 E 17 25 1024.6 - 1.0 - - - - - - -

Other Formats:

Comma delimited format used in spreadsheet applications
http://www.bom.gov.au/fwo/IDV60701/IDV60701.94949.axf

JavaScript Object Notation format (JSON) in row-major order
http://www.bom.gov.au/fwo/IDV60701/IDV60701.94949.json